Time;durP1;ratioP1;P1;durP2;ratioP2;P2;SDS_P1;SDS_P2;PMS_P1;PMS_P2;Temp;Humidity;BMP_temperature;BMP_pressure;BME280_temperature;BME280_humidity;BME280_pressure;Samples;Min_cycle;Max_cycle;Signal;HPM_P1;HPM_P2
2023/01/19 00:00:03;;;;;;;21.43;14.03;;;1.70;99.90;;;;;;4975737;28;20058;-85
2023/01/19 00:02:29;;;;;;;21.37;14.03;;;1.90;99.90;;;;;;4976317;28;20069;-85
2023/01/19 00:05:14;;;;;;;23.97;13.97;;;2.30;99.90;;;;;;4976342;28;20409;-85
2023/01/19 00:07:40;;;;;;;25.63;14.90;;;3.60;99.90;;;;;;4993217;28;20038;-85
2023/01/19 00:10:24;;;;;;;19.73;11.60;;;1.80;99.90;;;;;;4975991;28;20050;-85
2023/01/19 00:12:50;;;;;;;;;;;1.70;99.90;;;;;;4977193;28;20108;-85
2023/01/19 00:15:36;;;;;;;18.67;11.57;;;2.10;99.90;;;;;;4975479;28;19921;-85
2023/01/19 00:18:02;;;;;;;19.30;10.73;;;2.60;99.90;;;;;;4993981;28;20046;-85
2023/01/19 00:20:41;;;;;;;16.73;10.10;;;1.90;99.90;;;;;;4992393;28;20038;-84
2023/01/19 00:23:14;;;;;;;16.77;9.40;;;3.00;99.90;;;;;;4976282;28;20050;-85
2023/01/19 00:25:50;;;;;;;16.50;9.38;;;2.60;99.90;;;;;;4993570;28;20046;-85
2023/01/19 00:28:24;;;;;;;15.10;8.00;;;3.00;99.90;;;;;;4974754;28;20158;-85
2023/01/19 00:30:50;;;;;;;15.00;8.73;;;2.50;99.90;;;;;;4975520;28;20039;-85
2023/01/19 00:33:16;;;;;;;17.73;9.63;;;2.00;99.90;;;;;;4975211;28;20053;-85
2023/01/19 00:35:53;;;;;;;14.67;8.83;;;3.30;99.90;;;;;;4970827;28;20050;-85
2023/01/19 00:38:19;;;;;;;17.93;9.50;;;1.70;99.90;;;;;;4976314;28;20457;-85
2023/01/19 00:40:46;;;;;;;14.47;9.33;;;2.70;99.90;;;;;;5002968;28;20490;-85
2023/01/19 00:43:14;;;;;;;16.97;9.27;;;3.00;99.90;;;;;;4975572;28;20054;-84
2023/01/19 00:45:40;;;;;;;15.83;9.27;;;3.10;99.90;;;;;;4993383;28;20038;-85
2023/01/19 00:48:06;;;;;;;13.63;7.70;;;1.60;99.90;;;;;;4992845;28;20042;-84
2023/01/19 00:50:32;;;;;;;14.40;7.50;;;1.90;99.90;;;;;;4976110;28;20046;-85
2023/01/19 00:53:02;;;;;;;14.20;7.60;;;3.10;99.90;;;;;;4979909;28;20104;-84
2023/01/19 00:55:32;;;;;;;11.43;6.10;;;1.50;99.90;;;;;;4997221;28;20074;-85
2023/01/19 00:58:01;;;;;;;12.47;6.93;;;1.70;99.90;;;;;;4978570;28;20133;-85
2023/01/19 01:00:27;;;;;;;14.30;7.30;;;2.90;99.90;;;;;;4979671;28;20553;-85
2023/01/19 01:02:53;;;;;;;13.37;7.23;;;1.90;99.90;;;;;;4993319;28;20058;-85
2023/01/19 01:05:19;;;;;;;13.20;7.87;;;3.50;99.90;;;;;;4979482;28;20043;-85
2023/01/19 01:07:48;;;;;;;13.03;8.03;;;1.90;99.90;;;;;;4997558;28;20042;-84
2023/01/19 01:10:15;;;;;;;15.13;9.27;;;1.70;99.90;;;;;;4996338;28;20089;-85
2023/01/19 01:13:18;;;;;;;15.67;9.73;;;3.10;99.90;;;;;;4979601;28;20050;-84
2023/01/19 01:15:51;;;;;;;16.10;9.83;;;2.30;99.90;;;;;;4986069;28;20055;-84
2023/01/19 01:18:19;;;;;;;19.70;12.40;;;1.80;99.90;;;;;;5000396;28;20085;-85
2023/01/19 01:20:48;;;;;;;21.10;12.23;;;0.60;99.90;;;;;;4998413;28;20042;-85
2023/01/19 01:23:21;;;;;;;19.83;11.87;;;1.30;99.90;;;;;;4997779;28;20481;-85
2023/01/19 01:25:47;;;;;;;19.80;12.23;;;2.80;99.90;;;;;;4995779;28;20386;-85
2023/01/19 01:28:12;;;;;;;19.23;12.60;;;1.10;99.90;;;;;;4979281;28;20100;-85
2023/01/19 01:30:39;;;;;;;22.17;14.27;;;1.10;99.90;;;;;;4998677;28;20100;-85
2023/01/19 01:33:14;;;;;;;20.57;13.57;;;2.60;99.90;;;;;;4995737;28;20054;-85
2023/01/19 01:35:40;;;;;;;23.00;14.60;;;1.40;99.90;;;;;;4979833;28;20621;-85
2023/01/19 01:38:06;;;;;;;24.30;15.37;;;1.10;99.90;;;;;;4995959;28;20133;-85
2023/01/19 01:40:32;;;;;;;25.50;16.27;;;2.00;99.90;;;;;;4979058;28;20038;-85
2023/01/19 01:42:57;;;;;;;23.97;15.70;;;2.60;99.90;;;;;;4978547;28;20089;-85
2023/01/19 01:45:37;;;;;;;22.37;14.83;;;1.10;99.90;;;;;;4974141;28;20053;-85
2023/01/19 01:48:29;;;;;;;23.70;15.53;;;2.00;99.90;;;;;;4979582;28;20136;-85
2023/01/19 01:54:27;;;;;;;23.77;15.63;;;1.20;99.90;;;;;;4945534;28;20054;-85
2023/01/19 01:57:01;;;;;;;26.90;16.60;;;0.80;99.90;;;;;;4978111;28;20469;-85
2023/01/19 01:59:38;;;;;;;25.30;15.83;;;0.90;99.90;;;;;;4995267;28;20064;-85
2023/01/19 02:05:33;;;;;;;27.07;16.70;;;2.30;99.90;;;;;;4977978;28;20046;-84
2023/01/19 02:14:15;;;;;;;26.87;16.83;;;1.40;99.90;;;;;;5017559;23;20112;-85
2023/01/19 02:16:55;;;;;;;26.27;16.53;;;1.20;99.90;;;;;;4996092;28;20046;-84
2023/01/19 02:22:24;;;;;;;26.97;15.53;;;1.40;99.90;;;;;;5066864;23;20418;-85
2023/01/19 02:24:51;;;;;;;24.33;15.77;;;1.40;99.90;;;;;;4990906;28;20050;-85
2023/01/19 02:27:25;;;;;;;25.80;16.27;;;1.90;99.90;;;;;;5014092;28;20139;-85
2023/01/19 02:29:52;;;;;;;26.83;15.63;;;1.30;99.90;;;;;;5015598;28;20108;-85
2023/01/19 02:32:17;;;;;;;25.40;15.37;;;1.10;99.90;;;;;;4997128;28;20056;-85
2023/01/19 02:34:59;;;;;;;26.13;16.50;;;1.30;99.90;;;;;;4996733;28;20053;-85
2023/01/19 02:37:26;;;;;;;30.27;17.57;;;0.50;99.90;;;;;;5014837;28;20508;-85
2023/01/19 02:40:13;;;;;;;27.67;16.70;;;1.20;99.90;;;;;;4997507;28;20077;-85
2023/01/19 02:42:59;;;;;;;28.23;17.37;;;1.40;99.90;;;;;;5014064;28;20486;-85
2023/01/19 02:45:41;;;;;;;27.30;15.63;;;2.90;99.90;;;;;;5008916;28;20053;-85
2023/01/19 02:48:07;;;;;;;27.53;16.27;;;2.30;99.90;;;;;;5014305;28;20092;-85
2023/01/19 02:50:53;;;;;;;25.40;15.00;;;1.30;99.90;;;;;;4996222;28;20077;-85
2023/01/19 02:53:48;;;;;;;29.33;16.97;;;3.50;99.90;;;;;;5014519;28;20052;-85
2023/01/19 02:56:36;;;;;;;27.27;16.07;;;2.20;99.90;;;;;;5014091;28;20038;-85
2023/01/19 02:59:41;;;;;;;25.70;15.03;;;1.50;99.90;;;;;;5000060;28;20494;-85
2023/01/19 03:02:32;;;;;;;30.27;18.27;;;0.80;99.90;;;;;;4996590;28;20050;-85
2023/01/19 03:05:44;;;;;;;30.10;17.80;;;0.90;99.90;;;;;;4996744;28;20054;-85
2023/01/19 03:08:28;;;;;;;29.13;18.63;;;1.60;99.90;;;;;;5023823;28;20050;-85
2023/01/19 03:11:04;;;;;;;;;;;1.90;99.90;;;;;;4996718;28;20129;-85
2023/01/19 03:14:00;;;;;;;31.87;19.07;;;1.70;99.90;;;;;;4996413;28;19921;-85
2023/01/19 03:16:38;;;;;;;28.10;18.37;;;1.70;99.90;;;;;;5013731;28;20096;-85
2023/01/19 03:19:20;;;;;;;31.37;19.07;;;3.00;99.90;;;;;;5014359;28;20128;-85
2023/01/19 03:22:00;;;;;;;31.57;19.10;;;1.40;99.90;;;;;;4996315;28;20486;-85
2023/01/19 03:24:30;;;;;;;32.33;19.57;;;1.60;99.90;;;;;;4995593;28;20152;-85
2023/01/19 03:27:08;;;;;;;30.63;18.57;;;1.50;99.90;;;;;;5014384;28;20196;-85
2023/01/19 03:29:37;;;;;;;32.63;19.43;;;1.40;99.90;;;;;;5014472;28;20088;-85
2023/01/19 03:32:07;;;;;;;30.53;17.87;;;3.40;99.90;;;;;;4995393;28;20058;-85
2023/01/19 03:34:34;;;;;;;32.13;20.20;;;1.30;99.90;;;;;;5014068;28;20060;-85
2023/01/19 03:37:08;;;;;;;33.03;18.87;;;2.30;99.90;;;;;;4997083;28;20121;-86
2023/01/19 03:39:43;;;;;;;30.50;17.83;;;2.20;99.90;;;;;;5013052;28;20128;-86
2023/01/19 03:42:16;;;;;;;31.13;19.17;;;1.20;99.90;;;;;;4996231;28;20398;-86
2023/01/19 03:44:44;;;;;;;32.05;19.17;;;2.30;99.90;;;;;;5014266;28;20124;-85
2023/01/19 03:47:11;;;;;;;30.67;18.67;;;2.60;99.90;;;;;;4995742;28;20057;-85
2023/01/19 03:49:39;;;;;;;31.93;18.50;;;3.30;99.90;;;;;;4996677;28;20041;-86
2023/01/19 03:52:05;;;;;;;30.63;17.93;;;1.40;99.90;;;;;;5013411;28;20426;-85
2023/01/19 03:54:31;;;;;;;34.77;19.33;;;0.60;99.90;;;;;;5013373;28;20425;-85
2023/01/19 03:57:03;;;;;;;30.47;18.67;;;2.20;99.90;;;;;;4990479;28;20033;-86
2023/01/19 03:59:35;;;;;;;30.93;17.50;;;3.50;99.90;;;;;;5012745;28;20137;-85
2023/01/19 04:02:01;;;;;;;32.13;19.07;;;2.50;99.90;;;;;;4996128;28;20049;-86
2023/01/19 04:04:26;;;;;;;28.33;17.47;;;1.90;99.90;;;;;;4996209;28;20042;-85
2023/01/19 04:06:58;;;;;;;30.43;18.10;;;1.90;99.90;;;;;;4995716;28;20077;-86
2023/01/19 04:09:33;;;;;;;28.60;17.50;;;1.30;99.90;;;;;;4996036;28;20050;-86
2023/01/19 04:12:08;;;;;;;28.33;16.53;;;2.50;99.90;;;;;;4995824;28;20046;-86
2023/01/19 04:14:34;;;;;;;24.43;14.70;;;1.90;99.90;;;;;;4994001;28;20478;-85
2023/01/19 04:16:59;;;;;;;27.00;14.83;;;2.50;99.90;;;;;;5013135;28;20088;-85
2023/01/19 04:19:25;;;;;;;26.80;15.73;;;2.20;99.90;;;;;;5015500;28;20094;-85
2023/01/19 04:22:06;;;;;;;24.00;14.50;;;1.50;99.90;;;;;;5021838;28;20061;-85
2023/01/19 04:24:38;;;;;;;22.50;13.50;;;1.80;99.90;;;;;;4995078;28;20477;-85
2023/01/19 04:27:10;;;;;;;25.00;15.07;;;1.70;99.90;;;;;;4994944;28;20510;-85
2023/01/19 04:29:51;;;;;;;23.40;13.70;;;0.50;99.90;;;;;;4995669;28;20085;-85
2023/01/19 04:32:24;;;;;;;20.50;12.13;;;1.10;99.90;;;;;;4995130;28;20049;-85
2023/01/19 04:34:50;;;;;;;20.43;12.30;;;1.50;99.90;;;;;;5012963;28;20076;-85
2023/01/19 04:37:19;;;;;;;19.53;10.80;;;1.20;99.90;;;;;;4998233;28;20284;-85
2023/01/19 04:39:44;;;;;;;20.33;11.87;;;2.00;99.90;;;;;;4995434;28;20062;-85
2023/01/19 04:42:10;;;;;;;20.23;11.43;;;1.90;99.90;;;;;;4994430;28;20069;-85
2023/01/19 04:44:36;;;;;;;20.07;11.70;;;1.00;99.90;;;;;;4998010;28;20053;-85
2023/01/19 04:47:02;;;;;;;20.00;11.27;;;1.50;99.90;;;;;;4995338;28;20129;-85
2023/01/19 04:49:45;;;;;;;18.95;9.70;;;1.40;99.90;;;;;;4994703;28;20046;-86
2023/01/19 04:52:34;;;;;;;18.33;10.57;;;2.60;99.90;;;;;;4995381;28;20393;-85
2023/01/19 04:55:04;;;;;;;18.33;9.83;;;3.10;99.90;;;;;;4994095;28;20104;-85
2023/01/19 04:57:42;;;;;;;17.97;9.80;;;1.40;99.90;;;;;;5019660;23;20088;-85
2023/01/19 05:00:09;;;;;;;17.27;9.37;;;1.10;99.90;;;;;;5012507;28;20046;-85
2023/01/19 05:02:35;;;;;;;16.73;9.07;;;1.40;99.90;;;;;;4983590;28;20177;-85
2023/01/19 05:05:15;;;;;;;17.07;9.37;;;1.10;99.90;;;;;;5012756;28;20042;-85
2023/01/19 05:07:42;;;;;;;18.53;9.80;;;1.60;99.90;;;;;;5012368;28;20129;-85
2023/01/19 05:10:08;;;;;;;17.90;9.17;;;0.80;99.90;;;;;;5001910;23;20092;-85
2023/01/19 05:12:47;;;;;;;18.73;10.20;;;1.80;99.90;;;;;;5012667;28;20224;-85
2023/01/19 05:15:12;;;;;;;18.57;10.00;;;1.20;99.90;;;;;;4994771;28;20117;-85
2023/01/19 05:17:57;;;;;;;19.13;9.80;;;3.40;99.90;;;;;;4994137;28;20034;-85
2023/01/19 05:20:23;;;;;;;19.97;10.00;;;1.10;99.90;;;;;;5012653;28;20046;-85
2023/01/19 05:23:05;;;;;;;19.50;10.30;;;0.70;99.90;;;;;;4995097;28;20136;-85
2023/01/19 05:25:30;;;;;;;20.43;10.67;;;1.20;99.90;;;;;;4994679;28;20041;-85
2023/01/19 05:27:56;;;;;;;19.90;11.00;;;1.10;99.90;;;;;;5012323;28;20045;-85
2023/01/19 05:30:40;;;;;;;20.57;10.63;;;2.10;99.90;;;;;;4994314;28;20038;-86
2023/01/19 05:33:11;;;;;;;21.00;10.75;;;2.30;99.90;;;;;;5012269;28;20517;-86
2023/01/19 05:35:37;;;;;;;20.37;10.80;;;1.50;99.90;;;;;;4995058;28;20052;-85
2023/01/19 05:38:03;;;;;;;22.00;11.33;;;2.30;99.90;;;;;;4995928;28;20046;-85
2023/01/19 05:40:47;;;;;;;21.33;10.10;;;1.20;99.90;;;;;;5015470;28;20446;-85
2023/01/19 05:43:14;;;;;;;21.53;11.10;;;2.50;99.90;;;;;;5016034;28;20046;-85
2023/01/19 05:45:54;;;;;;;23.53;10.87;;;2.70;99.90;;;;;;5014254;28;20048;-85
2023/01/19 05:48:20;;;;;;;20.67;10.80;;;1.30;99.90;;;;;;4997594;28;20050;-86
2023/01/19 05:50:48;;;;;;;21.37;10.77;;;2.30;99.90;;;;;;5015646;28;20042;-86
2023/01/19 05:53:27;;;;;;;24.10;11.23;;;0.70;99.90;;;;;;5013247;28;20486;-86
2023/01/19 05:55:57;;;;;;;21.73;10.80;;;2.00;99.90;;;;;;5016089;28;20134;-86
2023/01/19 05:58:23;;;;;;;23.10;11.50;;;1.40;99.90;;;;;;5070966;23;20577;-85
2023/01/19 06:01:13;;;;;;;23.70;11.60;;;1.90;99.90;;;;;;5015332;28;20049;-86
2023/01/19 06:03:54;;;;;;;21.93;11.70;;;2.90;99.90;;;;;;4992605;28;20042;-85
2023/01/19 06:06:19;;;;;;;23.73;11.70;;;4.00;99.90;;;;;;4997191;28;20046;-86
2023/01/19 06:08:45;;;;;;;25.60;12.20;;;3.30;99.90;;;;;;5015438;28;20041;-85
2023/01/19 06:11:20;;;;;;;23.77;10.87;;;3.60;99.90;;;;;;4997738;28;20478;-85
2023/01/19 06:13:47;;;;;;;23.23;11.33;;;1.80;99.90;;;;;;5018143;28;20088;-86
2023/01/19 06:16:13;;;;;;;20.90;10.60;;;2.50;99.90;;;;;;5015563;28;20038;-85
2023/01/19 06:19:00;;;;;;;21.67;10.20;;;1.80;99.90;;;;;;4997658;28;20038;-85
2023/01/19 06:21:26;;;;;;;23.07;10.17;;;2.10;99.90;;;;;;5014327;28;20056;-86
2023/01/19 06:24:08;;;;;;;22.43;9.57;;;2.40;99.90;;;;;;5001112;28;20046;-85
2023/01/19 06:26:34;;;;;;;19.20;8.43;;;1.80;99.90;;;;;;5005385;23;20073;-85
2023/01/19 06:29:25;;;;;;;19.80;8.30;;;3.20;99.90;;;;;;4996704;28;20084;-85
2023/01/19 06:32:05;;;;;;;20.87;9.17;;;2.40;99.90;;;;;;5031722;22;20062;-86
2023/01/19 06:34:46;;;;;;;20.93;8.90;;;1.80;99.90;;;;;;4996053;28;20688;-85
2023/01/19 06:37:15;;;;;;;18.83;8.53;;;1.40;99.90;;;;;;4997339;28;20042;-86
2023/01/19 06:39:56;;;;;;;17.10;7.47;;;3.10;99.90;;;;;;5014739;28;20046;-85
2023/01/19 06:42:21;;;;;;;17.77;7.53;;;2.70;99.90;;;;;;4996595;28;20049;-85
2023/01/19 06:44:47;;;;;;;17.90;7.17;;;1.60;99.90;;;;;;4997546;28;20046;-85
2023/01/19 06:47:14;;;;;;;17.00;6.63;;;1.60;99.90;;;;;;4996965;28;20497;-86
2023/01/19 06:49:58;;;;;;;17.07;6.43;;;1.50;99.90;;;;;;4996104;28;20081;-86
2023/01/19 06:52:24;;;;;;;19.70;6.20;;;1.30;99.90;;;;;;5004078;23;20088;-86
2023/01/19 06:55:06;;;;;;;18.20;5.80;;;1.50;99.90;;;;;;4996464;28;20069;-85
2023/01/19 06:57:58;;;;;;;14.37;5.17;;;2.00;99.90;;;;;;4997005;28;20432;-85
2023/01/19 07:00:27;;;;;;;15.03;4.83;;;2.40;99.90;;;;;;4952518;28;20493;-86
2023/01/19 07:03:16;;;;;;;12.87;3.90;;;3.70;99.90;;;;;;5008324;28;20050;-86
2023/01/19 07:05:42;;;;;;;15.60;4.90;;;3.20;99.90;;;;;;4997238;28;20045;-86
2023/01/19 07:08:26;;;;;;;13.03;3.80;;;2.20;99.90;;;;;;5014953;28;20049;-85
2023/01/19 07:11:04;;;;;;;;;;;3.90;99.90;;;;;;5015439;28;20054;-86
2023/01/19 07:13:31;;;;;;;11.77;3.30;;;1.90;99.90;;;;;;5014114;28;20438;-86
2023/01/19 07:16:16;;;;;;;12.73;3.30;;;1.90;99.90;;;;;;5020827;22;20516;-86
2023/01/19 07:18:42;;;;;;;12.77;3.23;;;1.70;99.90;;;;;;4996460;28;20053;-86
2023/01/19 07:21:08;;;;;;;13.00;3.20;;;3.30;99.90;;;;;;4996577;28;20050;-86
2023/01/19 07:23:42;;;;;;;9.83;2.53;;;3.80;99.90;;;;;;5013149;28;20064;-85
2023/01/19 07:26:09;;;;;;;12.43;2.90;;;2.00;99.90;;;;;;5014675;28;20122;-86
2023/01/19 07:28:36;;;;;;;10.87;3.07;;;1.30;99.90;;;;;;4996592;28;20037;-86
2023/01/19 07:31:17;;;;;;;13.07;2.83;;;2.40;99.90;;;;;;5012376;28;20129;-85
2023/01/19 07:33:48;;;;;;;10.83;2.63;;;3.20;99.90;;;;;;4995876;28;20056;-85
2023/01/19 07:36:26;;;;;;;9.70;2.87;;;2.10;99.90;;;;;;5014179;28;20042;-85
2023/01/19 07:38:52;;;;;;;12.77;3.10;;;3.30;99.90;;;;;;4995151;28;20069;-86
2023/01/19 07:41:17;;;;;;;17.77;2.97;;;2.40;99.90;;;;;;5013654;28;20474;-86
2023/01/19 07:43:46;;;;;;;9.77;2.13;;;3.60;99.90;;;;;;4995094;28;20046;-84
2023/01/19 07:46:12;;;;;;;11.93;2.20;;;2.00;99.90;;;;;;4996138;28;20049;-84
2023/01/19 07:48:50;;;;;;;9.67;2.07;;;1.90;99.90;;;;;;4996265;28;20045;-84
2023/01/19 07:51:18;;;;;;;10.03;1.80;;;2.00;99.90;;;;;;4995325;28;20073;-82
2023/01/19 07:53:50;;;;;;;12.73;1.80;;;1.90;99.90;;;;;;4995825;28;20046;-82
2023/01/19 07:56:16;;;;;;;10.37;1.80;;;;;;;;;;4995856;28;20045;-84
2023/01/19 07:58:51;;;;;;;12.87;2.03;;;2.30;99.90;;;;;;5012600;28;20517;-83
2023/01/19 08:01:17;;;;;;;11.00;1.77;;;1.60;99.90;;;;;;5012285;28;20053;-84
2023/01/19 08:03:49;;;;;;;8.53;2.23;;;1.90;99.90;;;;;;5007885;28;20402;-84
2023/01/19 08:06:39;;;;;;;11.83;2.20;;;2.30;99.90;;;;;;4995118;28;20054;-83
2023/01/19 08:09:13;;;;;;;15.63;2.20;;;3.40;99.90;;;;;;4995813;28;20490;-83
2023/01/19 08:11:39;;;;;;;13.30;4.33;;;3.60;99.90;;;;;;4995362;28;20082;-82
2023/01/19 08:14:19;;;;;;;15.70;3.43;;;2.80;99.90;;;;;;5012067;28;20697;-81
2023/01/19 08:16:45;;;;;;;13.53;4.17;;;2.40;99.90;;;;;;5005019;28;20050;-82
2023/01/19 08:19:23;;;;;;;14.47;5.37;;;2.40;99.90;;;;;;4974851;28;20061;-81
2023/01/19 08:22:01;;;;;;;14.10;6.23;;;2.50;99.90;;;;;;4993604;28;20042;-81
2023/01/19 08:24:30;;;;;;;15.27;4.50;;;2.50;99.90;;;;;;4975507;28;20140;-81
2023/01/19 08:27:16;;;;;;;11.93;2.40;;;2.70;99.90;;;;;;4975291;28;20049;-81
2023/01/19 08:29:42;;;;;;;16.17;3.60;;;2.80;99.90;;;;;;4976170;28;20066;-81
2023/01/19 08:32:07;;;;;;;14.03;5.83;;;3.60;99.90;;;;;;4993579;28;20510;-81
2023/01/19 08:34:36;;;;;;;25.07;5.77;;;2.60;99.90;;;;;;4974317;28;20054;-82
2023/01/19 08:37:02;;;;;;;13.87;3.30;;;2.80;99.90;;;;;;4993043;28;20432;-83
2023/01/19 08:39:27;;;;;;;10.73;2.33;;;3.40;99.90;;;;;;4993273;28;20049;-81
2023/01/19 08:41:53;;;;;;;15.57;4.13;;;2.70;99.90;;;;;;4992679;28;20042;-81
2023/01/19 08:44:19;;;;;;;12.03;4.03;;;2.70;99.90;;;;;;4993134;28;20042;-81
2023/01/19 08:46:44;;;;;;;15.20;4.13;;;2.70;99.90;;;;;;4993116;28;20375;-81
2023/01/19 08:49:10;;;;;;;15.97;2.93;;;2.70;99.90;;;;;;4974977;28;20129;-81
2023/01/19 08:51:36;;;;;;;14.23;2.70;;;2.60;99.90;;;;;;4993581;28;20548;-81
2023/01/19 08:54:02;;;;;;;12.13;2.53;;;2.60;99.90;;;;;;4974590;28;20168;-80
2023/01/19 08:56:28;;;;;;;19.97;4.23;;;2.60;99.90;;;;;;4992834;28;20824;-81
2023/01/19 08:58:54;;;;;;;12.70;2.90;;;2.60;99.90;;;;;;4978607;28;20057;-81
2023/01/19 09:01:20;;;;;;;18.10;3.27;;;2.60;99.90;;;;;;4988401;28;20046;-80
2023/01/19 09:03:47;;;;;;;17.47;3.37;;;2.70;99.90;;;;;;4982720;28;20449;-80
2023/01/19 09:06:15;;;;;;;22.47;8.53;;;2.70;99.90;;;;;;4980291;28;20065;-80
2023/01/19 09:08:42;;;;;;;18.37;5.43;;;2.70;99.90;;;;;;4979881;28;20501;-80
2023/01/19 09:11:12;;;;;;;22.93;7.50;;;2.70;99.90;;;;;;4989281;28;20041;-80
2023/01/19 09:13:40;;;;;;;23.57;7.27;;;2.70;99.90;;;;;;4997694;28;20045;-81
2023/01/19 09:16:07;;;;;;;19.73;5.30;;;2.80;99.90;;;;;;4997319;28;20041;-81
2023/01/19 09:18:33;;;;;;;19.57;5.93;;;2.80;99.90;;;;;;4997501;28;20212;-81
2023/01/19 09:21:03;;;;;;;35.30;11.17;;;2.80;99.90;;;;;;4998291;28;20124;-80
2023/01/19 09:23:29;;;;;;;14.90;2.90;;;2.90;99.90;;;;;;5015616;28;20115;-81
2023/01/19 09:26:02;;;;;;;17.57;2.97;;;3.00;99.90;;;;;;5016705;28;20081;-81
2023/01/19 09:28:28;;;;;;;26.25;4.97;;;3.10;99.90;;;;;;5015511;28;20042;-82
2023/01/19 09:30:54;;;;;;;12.03;3.77;;;3.10;99.90;;;;;;5014823;28;20049;-82
2023/01/19 09:33:21;;;;;;;17.83;4.37;;;3.20;99.90;;;;;;4997409;28;20042;-82
2023/01/19 09:35:48;;;;;;;15.53;3.53;;;3.20;99.90;;;;;;5003410;28;20038;-81
2023/01/19 09:38:15;;;;;;;16.53;3.17;;;3.30;99.90;;;;;;4980010;28;20046;-82
2023/01/19 09:40:49;;;;;;;12.87;2.70;;;3.40;99.90;;;;;;4978577;28;20453;-82
2023/01/19 09:43:22;;;;;;;18.23;3.20;;;3.40;99.90;;;;;;4977147;28;20129;-82
2023/01/19 09:45:54;;;;;;;15.20;3.13;;;3.40;99.90;;;;;;5003464;28;20066;-82
2023/01/19 09:48:44;;;;;;;16.40;4.13;;;3.50;99.90;;;;;;4987040;28;20108;-82
2023/01/19 09:51:18;;;;;;;17.23;3.17;;;3.40;99.90;;;;;;4996002;28;20100;-82
2023/01/19 09:53:52;;;;;;;13.30;4.47;;;3.30;99.90;;;;;;5007756;28;20120;-82
2023/01/19 09:56:18;;;;;;;;;;;3.40;99.90;;;;;;4978077;28;20182;-83
2023/01/19 09:58:45;;;;;;;16.40;2.67;;;3.40;99.90;;;;;;4977851;28;19928;-83
2023/01/19 10:01:30;;;;;;;16.80;2.50;;;3.30;99.90;;;;;;4978011;28;20042;-83
2023/01/19 10:04:23;;;;;;;15.37;3.17;;;3.30;99.90;;;;;;4995920;28;20038;-83
2023/01/19 10:06:51;;;;;;;12.33;2.37;;;3.30;99.90;;;;;;4978409;28;20509;-82
2023/01/19 10:09:40;;;;;;;20.77;3.80;;;3.30;99.90;;;;;;4978346;28;20495;-82
2023/01/19 10:12:15;;;;;;;12.87;2.43;;;4.70;99.90;;;;;;4977313;28;20118;-82
2023/01/19 10:14:54;;;;;;;17.20;2.97;;;3.30;99.90;;;;;;4995462;28;20078;-82
2023/01/19 10:17:44;;;;;;;16.97;2.87;;;3.30;99.90;;;;;;4975950;28;20572;-82
2023/01/19 10:20:18;;;;;;;15.20;2.60;;;3.30;99.90;;;;;;4994658;28;20088;-82
2023/01/19 10:22:47;;;;;;;10.17;2.33;;;3.30;99.90;;;;;;4994793;28;20042;-82
2023/01/19 10:25:18;;;;;;;16.80;3.90;;;4.50;99.90;;;;;;5014727;28;20054;-81
2023/01/19 10:27:45;;;;;;;14.07;3.13;;;3.40;99.90;;;;;;5012134;28;20042;-82
2023/01/19 10:30:22;;;;;;;18.50;4.50;;;3.40;99.90;;;;;;4992291;28;20053;-82
2023/01/19 10:32:48;;;;;;;15.57;2.97;;;3.60;99.90;;;;;;5014415;28;20092;-82
2023/01/19 10:35:20;;;;;;;12.47;2.10;;;5.10;99.90;;;;;;4996861;28;20041;-82
2023/01/19 10:37:47;;;;;;;17.13;3.03;;;3.70;99.90;;;;;;4985278;28;20069;-82
2023/01/19 10:40:30;;;;;;;10.83;2.30;;;3.70;99.90;;;;;;5049897;23;20459;-82
2023/01/19 10:42:59;;;;;;;13.32;3.03;;;3.80;99.90;;;;;;4998878;28;20038;-82
2023/01/19 10:45:48;;;;;;;14.43;2.47;;;5.30;99.90;;;;;;5005716;28;20053;-82
2023/01/19 10:48:23;;;;;;;15.10;3.10;;;3.30;99.90;;;;;;5004656;28;20808;-82
2023/01/19 10:51:38;;;;;;;14.63;2.80;;;5.60;99.90;;;;;;4990482;28;20108;-82
2023/01/19 10:54:12;;;;;;;16.10;2.92;;;4.80;99.90;;;;;;4984278;28;20038;-82
2023/01/19 10:56:51;;;;;;;;;;;6.00;99.90;;;;;;4988047;28;20034;-82
2023/01/19 11:03:00;;;;;;;12.40;1.80;;;5.10;99.90;;;;;;4984212;28;20046;-82
2023/01/19 11:09:32;;;;;;;11.27;1.90;;;3.60;99.90;;;;;;5009873;28;20500;-82
2023/01/19 11:11:58;;;;;;;18.47;3.80;;;5.10;99.90;;;;;;4986241;28;20045;-82
2023/01/19 11:14:39;;;;;;;12.07;2.63;;;6.50;99.90;;;;;;5003729;28;20413;-83
2023/01/19 11:17:44;;;;;;;10.37;2.40;;;5.20;99.90;;;;;;4988668;28;20061;-82
2023/01/19 11:20:44;;;;;;;;;;;;;;;;;;;;;
2023/01/19 11:23:45;;;;;;;12.03;2.90;;;6.20;99.90;;;;;;4972423;28;20050;-82
2023/01/19 11:26:24;;;;;;;10.67;1.90;;;6.60;99.90;;;;;;4976989;28;20509;-82
2023/01/19 11:29:00;;;;;;;13.40;2.73;;;4.90;99.90;;;;;;4976357;28;20038;-82
2023/01/19 11:31:39;;;;;;;13.40;2.17;;;5.10;99.90;;;;;;4976724;28;20132;-82
2023/01/19 11:34:29;;;;;;;14.77;3.10;;;7.20;99.90;;;;;;4994561;28;20050;-83
2023/01/19 11:37:22;;;;;;;15.20;3.80;;;5.20;99.90;;;;;;4994739;28;20050;-82
2023/01/19 11:40:03;;;;;;;10.63;2.00;;;5.10;99.90;;;;;;4985788;28;20085;-82
2023/01/19 11:42:32;;;;;;;14.43;2.20;;;6.30;99.90;;;;;;4974986;28;20078;-82
2023/01/19 11:45:41;;;;;;;11.37;2.43;;;7.60;99.90;;;;;;4974389;28;20038;-83
2023/01/19 11:48:47;;;;;;;10.83;2.40;;;6.50;99.90;;;;;;4957265;28;20515;-83
2023/01/19 11:51:40;;;;;;;7.00;1.80;;;5.90;99.90;;;;;;4958762;28;20100;-82
2023/01/19 11:54:19;;;;;;;9.87;2.07;;;5.90;99.90;;;;;;4956202;28;20042;-82
2023/01/19 11:57:19;;;;;;;12.27;2.77;;;5.50;99.90;;;;;;4955901;28;20476;-82
2023/01/19 11:59:45;;;;;;;11.70;2.30;;;7.20;99.90;;;;;;4917870;28;20085;-82
2023/01/19 12:02:29;;;;;;;11.00;2.13;;;6.20;99.90;;;;;;4972044;28;20050;-82
2023/01/19 12:05:03;;;;;;;10.93;2.13;;;6.10;99.90;;;;;;4971894;28;20051;-82
2023/01/19 12:07:39;;;;;;;10.97;2.23;;;7.20;99.90;;;;;;4972750;28;20051;-82
2023/01/19 12:10:43;;;;;;;9.23;2.20;;;5.60;99.90;;;;;;4973192;28;20128;-82
2023/01/19 12:13:42;;;;;;;15.20;2.47;;;5.20;99.90;;;;;;4969273;28;20108;-82
2023/01/19 12:16:23;;;;;;;13.43;2.13;;;6.60;99.90;;;;;;4972953;28;20058;-82
2023/01/19 12:19:52;;;;;;;10.20;1.90;;;6.60;99.90;;;;;;4972384;28;20054;-84
2023/01/19 12:22:43;;;;;;;10.10;1.80;;;5.50;99.90;;;;;;4901851;29;20044;-83
2023/01/19 12:25:22;;;;;;;10.03;1.70;;;5.20;99.90;;;;;;4925100;28;20117;-83
2023/01/19 12:28:12;;;;;;;12.90;2.07;;;5.40;99.90;;;;;;4973797;28;20046;-83
2023/01/19 12:30:39;;;;;;;10.43;1.80;;;5.20;99.90;;;;;;4972878;28;20050;-83
2023/01/19 12:33:20;;;;;;;12.30;1.97;;;6.40;99.90;;;;;;4972033;28;20050;-83
2023/01/19 12:36:04;;;;;;;9.90;2.90;;;6.90;99.90;;;;;;4987111;28;20046;-83
2023/01/19 12:38:47;;;;;;;9.07;1.73;;;5.60;99.90;;;;;;4992279;28;20145;-83
2023/01/19 12:41:35;;;;;;;10.17;2.10;;;5.70;99.90;;;;;;4976673;28;20060;-83
2023/01/19 12:44:23;;;;;;;8.87;1.50;;;5.80;99.90;;;;;;4993711;28;20047;-83
2023/01/19 12:47:05;;;;;;;8.73;1.80;;;5.90;99.90;;;;;;4990967;28;20057;-83
2023/01/19 12:49:41;;;;;;;8.70;1.50;;;5.90;99.90;;;;;;4993551;28;20050;-82
2023/01/19 12:52:29;;;;;;;9.13;1.63;;;5.70;99.90;;;;;;4989643;28;20054;-83
2023/01/19 12:55:13;;;;;;;9.97;1.50;;;5.40;99.90;;;;;;4992873;28;20047;-82
2023/01/19 12:57:55;;;;;;;9.23;1.92;;;5.30;99.90;;;;;;5003335;28;20461;-82
2023/01/19 13:00:21;;;;;;;7.97;1.90;;;5.20;99.90;;;;;;4992889;28;20042;-82
2023/01/19 13:02:48;;;;;;;10.20;1.90;;;5.10;99.90;;;;;;4992996;28;20053;-82
2023/01/19 13:05:30;;;;;;;11.30;2.57;;;5.10;99.90;;;;;;4991599;28;20038;-83
2023/01/19 13:08:05;;;;;;;10.53;1.97;;;5.10;99.90;;;;;;4991271;28;20438;-83
2023/01/19 13:10:58;;;;;;;13.50;2.57;;;5.00;99.90;;;;;;4991783;28;20042;-83
2023/01/19 13:13:24;;;;;;;8.00;1.80;;;4.90;99.90;;;;;;4991595;28;20046;-83
2023/01/19 13:15:51;;;;;;;7.70;1.73;;;4.90;99.90;;;;;;4992281;28;20058;-81
2023/01/19 13:18:33;;;;;;;13.07;2.00;;;4.80;99.90;;;;;;4991734;28;20101;-81
2023/01/19 13:21:04;;;;;;;10.57;2.03;;;4.70;99.90;;;;;;4993041;28;20046;-81
2023/01/19 13:23:50;;;;;;;6.80;1.60;;;4.60;99.90;;;;;;4991262;28;20394;-82
2023/01/19 13:26:26;;;;;;;7.03;1.70;;;4.60;99.90;;;;;;4991496;28;20050;-81
2023/01/19 13:29:06;;;;;;;7.57;1.90;;;4.60;99.90;;;;;;4991472;28;20050;-81
2023/01/19 13:31:40;;;;;;;9.20;1.77;;;4.50;99.90;;;;;;4991444;28;20069;-80
2023/01/19 13:34:24;;;;;;;;;;;4.50;99.90;;;;;;5003283;28;20046;-82
2023/01/19 13:36:53;;;;;;;10.05;1.90;;;4.50;99.90;;;;;;4992458;28;19922;-81
2023/01/19 13:39:24;;;;;;;20.70;7.63;;;4.50;99.90;;;;;;4991162;28;20054;-81
2023/01/19 13:41:54;;;;;;;13.47;4.27;;;4.50;99.90;;;;;;4991982;28;20089;-81
2023/01/19 13:44:26;;;;;;;11.17;3.10;;;4.60;99.90;;;;;;4990949;28;20039;-81
2023/01/19 13:46:55;;;;;;;11.90;2.07;;;6.20;99.90;;;;;;4991641;28;20046;-81
2023/01/19 13:49:34;;;;;;;9.30;1.90;;;4.60;99.90;;;;;;4992138;28;20061;-81